Quitman, MS (39355)

8:22 PM CST on December 10, 2016 (GMT -0600)
JRHC - Snell | | Change Station

Elev 427 ft 32.19 °N, 88.50 °W | Updated 8 seconds ago

Clear
Clear
31.8 °F
Feels Like 32 °F
N
0.0
Wind Variable Wind from East
Gusts 0.0 mph

Today
High -- | Low -- °F
--% Chance of Precip.
Yesterday
High -- | Low -- °F
Precip. -- in
Pressure 30.42 in
Visibility 10.0 miles
Clouds Clear
Windchill 32 °F
Dew Point 23 °F
Humidity 70%
Rainfall 0.00 in
Snow Depth Not available.
6:45 AM 4:50 PM
Waxing Gibbous, 88% visible
METAR KMEI 110158Z 00000KT 10SM CLR 01/M04 A3041 RMK AO2 SLP299 T00111039
Pressure 30.42 in
Visibility 10.0 miles
Clouds Clear
Windchill 32 °F
Dew Point 23 °F
Humidity 70%
Rainfall 0.00 in
Snow Depth Not available.
6:45 AM 4:50 PM
Waxing Gibbous, 88% visible
METAR KMEI 110158Z 00000KT 10SM CLR 01/M04 A3041 RMK AO2 SLP299 T00111039

10-Day Weather Forecast

Almanac

Astronomy

Dec. 10, 2016 Rise Set
Actual Time
Civil Twilight
Nautical Twilight
Astronomical Twilight
Moon
Length of Visible Light
Length of Day
Tomorrow will be .
, % of the Moon is Illuminated

Today's Extremes

State Highs State Lows

Community

WunderPhotos

Upload Photos

1,956,690 photos uploaded!

WunderBlog® & News

Nearby

Air Quality

  Air Quality AQ Index Pollutant
Not available.

Snow Depth

Station Depth Elevation

Earthquake Activity

City Distance Mag. Time & Date
Minimum magnitude displayed is 2.5.

Coastal Water Temperatures

Place Temperature

Stations

Nearby Weather Stations

Station Location Temp. Windchill Dew Point Humidity Wind Precip. Elev Updated Type
                   

Watches & Warnings

There are currently no watches in effect.